createdAt,value
2022-08-16T07:20:02.989Z,18.73
2022-08-16T07:22:47.671Z,19.88
2022-08-16T07:25:10.747Z,20.48
2022-08-16T07:27:39.301Z,18.98
2022-08-16T07:30:38.997Z,19.58
2022-08-16T07:32:57.735Z,19.63
2022-08-16T07:35:25.577Z,19.70
2022-08-16T07:37:53.215Z,20.92
2022-08-16T07:40:31.917Z,20.02
2022-08-16T07:43:07.231Z,20.52
2022-08-16T07:45:34.711Z,19.10
2022-08-16T07:48:11.089Z,19.48
2022-08-16T07:50:56.151Z,18.67
2022-08-16T07:53:24.655Z,19.13
2022-08-16T07:55:55.543Z,19.58
2022-08-16T07:58:34.780Z,18.92
2022-08-16T08:01:05.694Z,18.65
2022-08-16T08:03:41.562Z,18.30
2022-08-16T08:06:10.589Z,20.00
2022-08-16T08:08:51.565Z,19.15
2022-08-16T08:11:20.010Z,19.15
2022-08-16T08:13:49.390Z,19.25
2022-08-16T08:16:19.555Z,18.50
2022-08-16T08:18:50.401Z,17.95
2022-08-16T08:21:26.414Z,17.65
2022-08-16T08:23:56.498Z,15.75
2022-08-16T08:26:25.142Z,17.75
2022-08-16T08:28:52.406Z,18.17
2022-08-16T08:31:20.231Z,17.65
2022-08-16T08:33:51.340Z,18.50
2022-08-16T08:36:33.461Z,17.58
2022-08-16T08:39:00.364Z,16.23
2022-08-16T08:41:29.417Z,17.92
2022-08-16T08:43:58.219Z,19.30
2022-08-16T08:46:26.059Z,17.23
2022-08-16T08:49:02.479Z,18.20
2022-08-16T08:51:35.555Z,19.15
2022-08-16T08:54:06.851Z,18.95
2022-08-16T08:56:37.668Z,18.42
2022-08-16T08:59:19.768Z,18.52
2022-08-16T09:01:57.350Z,18.90
2022-08-16T09:04:26.599Z,17.30
2022-08-16T09:06:54.615Z,18.13
2022-08-16T09:09:23.022Z,17.10
2022-08-16T09:11:58.341Z,18.13
2022-08-16T09:14:32.759Z,16.60
2022-08-16T09:17:03.568Z,14.43
2022-08-16T09:19:41.293Z,15.85
2022-08-16T09:22:21.028Z,14.90
2022-08-16T09:24:53.137Z,16.23
2022-08-16T09:27:25.223Z,15.20
2022-08-16T09:30:00.555Z,14.25
2022-08-16T09:32:31.222Z,13.82
2022-08-16T09:35:00.037Z,15.38
2022-08-16T09:37:29.629Z,15.60
2022-08-16T09:39:59.644Z,15.90
2022-08-16T09:42:29.916Z,16.17
2022-08-16T09:45:11.994Z,14.20
2022-08-16T09:47:57.269Z,13.95
2022-08-16T09:50:38.188Z,13.20
2022-08-16T09:53:15.049Z,15.00
2022-08-16T09:55:49.347Z,14.43
2022-08-16T09:58:40.499Z,13.95
2022-08-16T10:01:05.633Z,12.27
2022-08-16T10:03:35.566Z,14.88
2022-08-16T10:06:02.536Z,15.60
2022-08-16T10:08:29.207Z,15.27
2022-08-16T10:11:14.765Z,13.45
2022-08-16T10:13:50.669Z,12.50
2022-08-16T10:16:17.527Z,14.00
2022-08-16T10:19:01.333Z,13.68
2022-08-16T10:21:33.699Z,14.50
2022-08-16T10:24:02.123Z,14.55
2022-08-16T10:27:19.332Z,12.90
2022-08-16T10:29:20.143Z,14.48
2022-08-16T10:31:53.555Z,14.27
2022-08-16T10:34:31.299Z,11.82
2022-08-16T10:37:00.328Z,13.02
2022-08-16T10:39:40.854Z,13.38
2022-08-16T10:42:10.627Z,12.70
2022-08-16T10:44:40.761Z,15.23
2022-08-16T10:47:09.955Z,15.23
2022-08-16T10:49:39.085Z,14.82
2022-08-16T10:52:18.286Z,12.20
2022-08-16T10:57:33.318Z,12.93
2022-08-16T11:00:04.683Z,11.80
2022-08-16T11:02:57.955Z,10.57
2022-08-16T11:05:18.550Z,11.07
2022-08-16T11:07:52.382Z,11.90
2022-08-16T11:17:02.027Z,12.52
2022-08-16T11:19:06.220Z,14.20
2022-08-16T11:22:22.506Z,13.38
2022-08-16T11:24:41.852Z,14.00
2022-08-16T11:27:23.211Z,12.38
2022-08-16T11:29:56.025Z,11.70
2022-08-16T11:32:32.555Z,12.70
2022-08-16T11:35:14.820Z,12.18
2022-08-16T11:38:24.039Z,10.65
2022-08-16T11:40:56.783Z,14.18
2022-08-16T11:43:28.321Z,11.73
2022-08-16T11:45:57.427Z,12.85
2022-08-16T11:48:32.111Z,14.00
2022-08-16T11:50:59.620Z,12.32
2022-08-16T11:53:28.226Z,13.75
2022-08-16T11:56:02.784Z,13.10
2022-08-16T11:58:33.947Z,12.50
2022-08-16T12:01:01.372Z,9.13
2022-08-16T12:03:35.376Z,12.25
2022-08-16T12:06:25.083Z,11.57
2022-08-16T12:09:00.684Z,9.63
2022-08-16T12:11:27.748Z,11.75
2022-08-16T12:14:04.740Z,13.35
2022-08-16T12:16:34.285Z,11.50
2022-08-16T12:19:04.390Z,10.70
2022-08-16T12:21:36.066Z,10.80
2022-08-16T12:24:18.619Z,12.60
2022-08-16T12:26:45.301Z,11.57
2022-08-16T12:29:11.943Z,13.15
2022-08-16T12:31:38.851Z,14.40
2022-08-16T12:34:28.811Z,13.38
2022-08-16T12:36:56.266Z,11.38
2022-08-16T12:39:23.600Z,13.07
2022-08-16T12:41:56.481Z,13.18
2022-08-16T12:44:27.057Z,12.65
2022-08-16T12:49:43.465Z,13.57
2022-08-16T12:52:27.939Z,13.23
2022-08-16T12:54:58.961Z,13.18
2022-08-16T12:57:25.646Z,14.68
2022-08-16T13:00:07.848Z,14.90
2022-08-16T13:02:36.335Z,12.73
2022-08-16T13:05:04.240Z,16.45
2022-08-16T13:07:37.619Z,14.25
2022-08-16T13:10:21.451Z,16.17
2022-08-16T13:13:05.680Z,15.82
2022-08-16T13:15:32.897Z,15.45
2022-08-16T13:18:33.691Z,16.42
2022-08-16T13:21:01.315Z,16.55
2022-08-16T13:23:30.271Z,14.77
2022-08-16T13:25:57.450Z,15.50
2022-08-16T13:28:24.460Z,15.65
2022-08-16T13:30:54.657Z,14.82
2022-08-16T13:33:30.075Z,14.10
2022-08-16T13:36:00.088Z,14.63
2022-08-16T13:38:31.371Z,12.82
2022-08-16T13:41:03.301Z,9.90
2022-08-16T13:43:32.547Z,10.05
2022-08-16T13:46:04.466Z,10.25
2022-08-16T13:48:42.993Z,8.27
2022-08-16T13:51:17.588Z,8.18
2022-08-16T13:53:59.312Z,7.30
2022-08-16T13:56:36.856Z,7.88
2022-08-16T13:59:19.623Z,8.88
2022-08-16T14:01:55.966Z,8.52
2022-08-16T14:04:27.577Z,8.40
2022-08-16T14:06:57.008Z,9.15
2022-08-16T14:09:24.275Z,9.93
2022-08-16T14:11:53.310Z,7.78
2022-08-16T14:14:21.701Z,7.72
2022-08-16T14:16:56.038Z,8.23
2022-08-16T14:19:23.082Z,8.65
2022-08-16T14:21:56.537Z,9.48
2022-08-16T14:24:37.157Z,9.88
2022-08-16T14:27:04.733Z,9.32
2022-08-16T14:29:34.975Z,10.30
2022-08-16T14:32:06.291Z,9.30
2022-08-16T14:34:32.963Z,8.27
2022-08-16T14:37:00.591Z,11.20
2022-08-16T14:39:27.332Z,9.55
2022-08-16T14:41:55.970Z,10.93
2022-08-16T14:44:23.559Z,10.00
2022-08-16T14:46:50.260Z,10.70
2022-08-16T14:49:19.456Z,11.18
2022-08-16T14:51:46.339Z,11.73
2022-08-16T14:54:15.130Z,11.80
2022-08-16T14:56:46.687Z,12.07
2022-08-16T14:59:21.111Z,12.23
2022-08-16T15:01:59.375Z,12.82
2022-08-16T15:04:39.490Z,11.88
2022-08-16T15:07:12.638Z,10.80
2022-08-16T15:10:01.246Z,11.20
2022-08-16T15:12:31.329Z,13.07
2022-08-16T15:15:04.410Z,11.95
2022-08-16T15:17:40.649Z,10.32
2022-08-16T15:20:08.824Z,11.20
2022-08-16T15:22:38.987Z,10.63
2022-08-16T15:25:09.700Z,10.10
2022-08-16T15:27:41.915Z,10.02
2022-08-16T15:30:57.678Z,8.30
2022-08-16T15:33:05.880Z,7.47
2022-08-16T15:35:33.380Z,5.75
2022-08-16T15:38:08.925Z,5.85
2022-08-16T15:40:52.041Z,6.63
2022-08-16T15:43:27.272Z,5.80
2022-08-16T15:46:34.501Z,5.05
2022-08-16T15:49:06.064Z,4.65
2022-08-16T15:51:34.431Z,5.28
2022-08-16T15:54:21.314Z,4.60
2022-08-16T15:56:51.398Z,4.40
2022-08-16T15:59:19.382Z,4.35
2022-08-16T16:01:47.091Z,3.72
2022-08-16T16:04:15.054Z,3.35
2022-08-16T16:06:55.321Z,3.50
2022-08-16T16:09:26.241Z,3.43
2022-08-16T16:12:41.496Z,3.72
2022-08-16T16:14:52.712Z,3.58
2022-08-16T16:17:19.383Z,3.60
2022-08-16T16:19:49.794Z,3.58
2022-08-16T16:24:48.567Z,4.32
2022-08-16T16:27:16.729Z,4.00
2022-08-16T16:29:46.205Z,4.25
2022-08-16T16:32:13.364Z,4.90
2022-08-16T16:34:43.104Z,4.25
2022-08-16T16:37:10.257Z,5.18
2022-08-16T16:39:37.653Z,4.90
2022-08-16T16:42:05.266Z,5.15
2022-08-16T16:44:33.717Z,5.30
2022-08-16T16:47:03.383Z,4.90
2022-08-16T16:49:30.152Z,3.80
2022-08-16T16:52:07.264Z,4.15
2022-08-16T16:54:35.441Z,3.95
2022-08-16T16:57:02.274Z,3.20
2022-08-16T16:59:29.143Z,3.30
2022-08-16T17:02:38.599Z,3.50
2022-08-16T17:04:45.945Z,3.30
2022-08-16T17:07:13.982Z,3.42
2022-08-16T17:09:41.020Z,3.80
2022-08-16T17:12:09.718Z,4.05
2022-08-16T17:14:38.541Z,4.13
2022-08-16T17:17:11.706Z,4.80
2022-08-16T17:19:41.210Z,5.43
2022-08-16T17:22:15.534Z,5.47
2022-08-16T17:24:45.610Z,4.93
2022-08-16T17:27:19.406Z,5.25
2022-08-16T17:30:16.038Z,5.13
2022-08-16T17:32:48.073Z,5.22
2022-08-16T17:35:18.489Z,5.28
2022-08-16T17:37:51.181Z,5.50
2022-08-16T17:40:40.764Z,5.70
2022-08-16T17:43:11.084Z,5.15
2022-08-16T17:45:39.317Z,5.30
2022-08-16T17:48:06.449Z,5.28
2022-08-16T17:50:33.647Z,7.13
2022-08-16T17:53:02.812Z,6.07
2022-08-16T17:55:32.150Z,5.78
2022-08-16T17:57:59.350Z,5.68
2022-08-16T18:00:27.762Z,6.07
2022-08-16T18:02:58.458Z,4.97
2022-08-16T18:05:27.852Z,4.60
2022-08-16T18:07:55.014Z,5.85
2022-08-16T18:10:32.711Z,7.00
2022-08-16T18:13:01.068Z,7.60
2022-08-16T18:15:28.141Z,7.72
2022-08-16T18:17:54.933Z,7.50
2022-08-16T18:20:41.667Z,6.32
2022-08-16T18:23:15.108Z,8.02
2022-08-16T18:25:46.988Z,7.35
2022-08-16T18:28:14.748Z,8.68
2022-08-16T18:30:41.790Z,7.68
2022-08-16T18:33:08.918Z,8.25
2022-08-16T18:35:36.015Z,8.50
2022-08-16T18:38:02.793Z,7.35
2022-08-16T18:40:29.636Z,9.32
2022-08-16T18:43:02.464Z,9.30
2022-08-16T18:45:35.560Z,9.07
2022-08-16T18:48:05.042Z,8.75
2022-08-16T18:51:03.423Z,8.32
2022-08-16T18:53:20.246Z,8.00
2022-08-16T18:55:47.973Z,7.50
2022-08-16T18:58:15.481Z,7.70
2022-08-16T19:00:52.715Z,7.95
2022-08-16T19:03:27.310Z,7.32
2022-08-16T19:06:03.766Z,6.50
2022-08-16T19:08:32.419Z,6.68
2022-08-16T19:10:59.071Z,6.57
2022-08-16T19:13:28.677Z,6.50
2022-08-16T19:15:58.346Z,8.20
2022-08-16T19:18:26.636Z,7.00
2022-08-16T19:20:55.411Z,6.88
2022-08-16T19:23:25.761Z,6.95
2022-08-16T19:26:00.113Z,6.40
2022-08-16T19:28:49.392Z,6.20
2022-08-16T19:31:29.707Z,7.20
2022-08-16T19:33:57.685Z,6.30
2022-08-16T19:36:35.114Z,6.72
2022-08-16T19:39:06.366Z,7.22
2022-08-16T19:41:38.100Z,6.35
2022-08-16T19:44:05.975Z,6.57
2022-08-16T19:46:33.036Z,6.60
2022-08-16T19:49:00.003Z,6.72
2022-08-16T19:51:27.019Z,7.38
2022-08-16T19:53:53.755Z,8.57
2022-08-16T19:56:22.918Z,7.47
2022-08-16T19:59:16.980Z,7.75
2022-08-16T20:01:41.921Z,8.20
2022-08-16T20:04:11.978Z,11.13
2022-08-16T20:06:39.592Z,7.95
2022-08-16T20:09:06.816Z,8.38
2022-08-16T20:11:34.808Z,8.93
2022-08-16T20:14:02.614Z,8.40
2022-08-16T20:16:29.424Z,9.20
2022-08-16T20:18:56.068Z,9.10
2022-08-16T20:21:22.797Z,9.27
2022-08-16T20:23:49.451Z,9.52
2022-08-16T20:26:16.211Z,10.02
2022-08-16T20:28:54.130Z,10.68
2022-08-16T20:31:22.559Z,10.35
2022-08-16T20:33:49.867Z,10.00
2022-08-16T20:36:16.845Z,9.60
2022-08-16T20:38:47.012Z,10.48
2022-08-16T20:41:15.047Z,10.90
2022-08-16T20:43:41.815Z,10.77
2022-08-16T20:46:08.697Z,12.00
2022-08-16T20:48:35.410Z,13.15
2022-08-16T20:51:02.118Z,13.77
2022-08-16T20:53:28.760Z,16.17
2022-08-16T20:55:56.286Z,18.00
2022-08-16T20:58:22.933Z,17.33
2022-08-16T21:00:50.078Z,17.30
2022-08-16T21:03:17.103Z,17.42
2022-08-16T21:05:46.399Z,17.35
2022-08-16T21:08:50.828Z,16.70
2022-08-16T21:11:03.513Z,16.38
2022-08-16T21:13:33.753Z,15.63
2022-08-16T21:16:01.225Z,15.57
2022-08-16T21:18:27.943Z,15.05
2022-08-16T21:20:55.238Z,14.95
2022-08-16T21:23:21.915Z,16.88
2022-08-16T21:25:57.942Z,16.48
2022-08-16T21:28:41.387Z,17.88
2022-08-16T21:31:14.657Z,17.48
2022-08-16T21:33:42.666Z,20.85
2022-08-16T21:36:09.799Z,20.23
2022-08-16T21:38:36.537Z,20.23
2022-08-16T21:41:04.816Z,24.63
2022-08-16T21:43:33.166Z,24.77
2022-08-16T21:46:02.160Z,22.27
2022-08-16T21:48:34.380Z,24.23
2022-08-16T21:51:07.547Z,23.55
2022-08-16T21:53:35.620Z,23.15
2022-08-16T21:56:03.472Z,24.45
2022-08-16T21:58:30.864Z,23.73
2022-08-16T22:00:58.688Z,24.38
2022-08-16T22:03:25.345Z,24.40
2022-08-16T22:06:11.021Z,23.27
2022-08-16T22:08:48.055Z,23.38
2022-08-16T22:11:20.118Z,23.30
2022-08-16T22:13:58.017Z,22.95
2022-08-16T22:16:33.531Z,24.17
2022-08-16T22:19:01.077Z,23.83
2022-08-16T22:21:28.107Z,22.75
2022-08-16T22:23:58.246Z,22.73
2022-08-16T22:26:33.362Z,23.10
2022-08-16T22:29:05.377Z,22.05
2022-08-16T22:31:33.009Z,21.83
2022-08-16T22:34:01.680Z,22.23
2022-08-16T22:36:29.423Z,21.23
2022-08-16T22:38:58.834Z,20.83
